createdAt,value
2018-07-25T00:02:10.601Z,19.30
2018-07-25T00:04:39.248Z,19.30
2018-07-25T00:07:09.921Z,19.30
2018-07-25T00:09:38.554Z,19.20
2018-07-25T00:12:07.292Z,19.20
2018-07-25T00:14:35.896Z,19.10
2018-07-25T00:17:04.599Z,19.10
2018-07-25T00:19:33.395Z,19.00
2018-07-25T00:22:02.120Z,19.00
2018-07-25T00:24:30.857Z,19.00
2018-07-25T00:26:59.509Z,18.80
2018-07-25T00:29:28.262Z,18.70
2018-07-25T00:31:57.685Z,18.70
2018-07-25T00:34:27.440Z,18.70
2018-07-25T00:36:57.917Z,18.80
2018-07-25T00:39:27.650Z,18.80
2018-07-25T00:41:56.365Z,18.80
2018-07-25T00:44:25.560Z,18.70
2018-07-25T00:46:55.008Z,18.60
2018-07-25T00:49:25.288Z,18.60
2018-07-25T00:51:54.016Z,18.50
2018-07-25T00:54:22.692Z,18.60
2018-07-25T00:56:51.432Z,18.60
2018-07-25T00:59:20.081Z,18.70
2018-07-25T01:01:48.879Z,18.70
2018-07-25T01:04:18.585Z,18.80
2018-07-25T01:06:47.315Z,18.90
2018-07-25T01:09:18.032Z,18.90
2018-07-25T01:11:47.264Z,18.90
2018-07-25T01:14:15.946Z,18.80
2018-07-25T01:16:44.564Z,18.90
2018-07-25T01:19:14.223Z,18.80
2018-07-25T01:21:42.979Z,18.90
2018-07-25T01:24:11.643Z,18.90
2018-07-25T01:26:40.449Z,18.80
2018-07-25T01:29:10.146Z,18.70
2018-07-25T01:31:38.841Z,18.70
2018-07-25T01:34:07.554Z,18.60
2018-07-25T01:36:36.340Z,18.60
2018-07-25T01:39:09.807Z,18.60
2018-07-25T01:41:38.655Z,18.60
2018-07-25T01:44:07.871Z,18.50
2018-07-25T01:46:36.546Z,18.50
2018-07-25T01:49:05.414Z,18.50
2018-07-25T01:51:34.198Z,18.50
2018-07-25T01:54:02.873Z,18.60
2018-07-25T01:56:31.564Z,18.50
2018-07-25T01:59:02.324Z,18.40
2018-07-25T02:01:31.001Z,18.40
2018-07-25T02:03:59.759Z,18.30
2018-07-25T02:06:28.491Z,18.10
2018-07-25T02:08:57.511Z,18.10
2018-07-25T02:11:27.134Z,18.00
2018-07-25T02:13:55.856Z,18.00
2018-07-25T02:16:24.534Z,18.10
2018-07-25T02:18:53.200Z,18.20
2018-07-25T02:21:21.881Z,18.30
2018-07-25T02:23:51.690Z,18.40
2018-07-25T02:26:20.495Z,18.40
2018-07-25T02:28:49.137Z,18.40
2018-07-25T02:31:18.583Z,18.20
2018-07-25T02:33:52.654Z,18.20
2018-07-25T02:36:22.303Z,18.20
2018-07-25T02:38:50.924Z,18.10
2018-07-25T02:41:20.156Z,18.10
2018-07-25T02:43:49.044Z,18.10
2018-07-25T02:46:17.717Z,18.00
2018-07-25T02:53:47.193Z,17.80
2018-07-25T02:56:15.894Z,17.70
2018-07-25T02:58:44.606Z,17.70
2018-07-25T03:01:13.269Z,17.70
2018-07-25T03:03:42.072Z,17.70
2018-07-25T03:06:10.790Z,17.70
2018-07-25T03:08:39.589Z,17.80
2018-07-25T03:11:08.925Z,17.70
2018-07-25T03:13:37.631Z,17.70
2018-07-25T03:16:07.432Z,17.70
2018-07-25T03:18:36.475Z,17.70
2018-07-25T03:21:05.374Z,17.60
2018-07-25T03:23:36.115Z,17.70
2018-07-25T03:26:05.829Z,17.70
2018-07-25T03:28:34.553Z,17.70
2018-07-25T03:31:03.248Z,17.60
2018-07-25T03:33:31.866Z,17.60
2018-07-25T03:36:01.064Z,17.50
2018-07-25T03:38:29.885Z,17.50
2018-07-25T03:40:58.594Z,17.50
2018-07-25T03:43:27.400Z,17.50
2018-07-25T03:45:56.016Z,17.50
2018-07-25T03:48:24.657Z,17.40
2018-07-25T03:50:53.441Z,17.40
2018-07-25T03:53:22.267Z,17.50
2018-07-25T03:55:50.964Z,17.50
2018-07-25T03:58:19.816Z,17.60
2018-07-25T04:00:48.572Z,17.60
2018-07-25T04:05:45.522Z,17.70
2018-07-25T04:08:14.214Z,17.60
2018-07-25T04:10:47.391Z,17.60
2018-07-25T04:13:16.577Z,17.70
2018-07-25T04:15:45.327Z,17.50
2018-07-25T04:18:15.037Z,17.60
2018-07-25T04:20:43.795Z,17.60
2018-07-25T04:23:12.450Z,17.80
2018-07-25T04:25:41.137Z,18.00
2018-07-25T04:28:09.852Z,18.40
2018-07-25T04:30:38.708Z,18.80
2018-07-25T04:33:07.388Z,19.20
2018-07-25T04:35:36.050Z,19.60
2018-07-25T04:38:04.775Z,19.80
2018-07-25T04:40:33.509Z,20.00
2018-07-25T04:43:02.249Z,20.20
2018-07-25T04:45:30.894Z,20.60
2018-07-25T04:47:59.705Z,20.90
2018-07-25T04:50:29.395Z,21.10
2018-07-25T04:52:58.142Z,21.00
2018-07-25T04:55:27.739Z,21.30
2018-07-25T04:57:56.385Z,21.60
2018-07-25T05:00:26.082Z,21.90
2018-07-25T05:02:54.815Z,22.10
2018-07-25T05:05:23.458Z,22.40
2018-07-25T05:07:52.212Z,22.60
2018-07-25T05:10:21.897Z,22.90
2018-07-25T05:12:50.588Z,23.10
2018-07-25T05:15:20.322Z,23.40
2018-07-25T05:17:49.174Z,23.70
2018-07-25T05:20:17.807Z,23.90
2018-07-25T05:22:46.543Z,24.20
2018-07-25T05:25:15.232Z,24.40
2018-07-25T05:27:43.972Z,24.50
2018-07-25T05:30:12.637Z,24.50
2018-07-25T05:32:41.298Z,24.40
2018-07-25T05:35:10.036Z,24.60
2018-07-25T05:37:38.803Z,24.20
2018-07-25T05:40:08.556Z,23.80
2018-07-25T05:42:37.191Z,23.40
2018-07-25T05:45:06.279Z,22.60
2018-07-25T05:49:19.030Z,22.20
2018-07-25T05:51:47.639Z,21.70
2018-07-25T05:56:44.573Z,21.50
2018-07-25T05:59:13.244Z,21.40
2018-07-25T06:01:41.930Z,21.40
2018-07-25T06:04:11.689Z,21.20
2018-07-25T06:06:40.396Z,21.20
2018-07-25T06:09:10.826Z,21.40
2018-07-25T06:11:40.633Z,21.40
2018-07-25T06:14:10.323Z,21.40
2018-07-25T06:16:39.120Z,21.40
2018-07-25T06:19:07.811Z,21.30
2018-07-25T06:21:36.590Z,21.30
2018-07-25T06:24:05.278Z,21.20
2018-07-25T06:26:34.093Z,21.40
2018-07-25T06:29:02.779Z,21.40
2018-07-25T06:31:31.503Z,21.50
2018-07-25T06:34:00.225Z,21.60
2018-07-25T06:36:28.979Z,21.90
2018-07-25T06:38:57.758Z,22.40
2018-07-25T06:41:26.488Z,23.10
2018-07-25T06:43:55.162Z,23.40
2018-07-25T06:46:23.805Z,23.80
2018-07-25T06:48:52.421Z,24.30
2018-07-25T06:51:21.173Z,24.90
2018-07-25T06:53:49.821Z,25.30
2018-07-25T06:56:18.505Z,24.90
2018-07-25T06:58:47.207Z,25.70
2018-07-25T07:01:16.048Z,25.70
2018-07-25T07:03:44.915Z,26.10
2018-07-25T07:06:13.546Z,25.90
2018-07-25T07:08:42.244Z,25.10
2018-07-25T07:11:10.949Z,25.20
2018-07-25T07:13:39.582Z,24.70
2018-07-25T07:16:09.911Z,24.50
2018-07-25T07:18:38.694Z,24.00
2018-07-25T07:21:07.455Z,24.00
2018-07-25T07:23:37.072Z,23.60
2018-07-25T07:26:05.894Z,23.30
2018-07-25T07:28:34.612Z,23.50
2018-07-25T07:31:03.219Z,23.40
2018-07-25T07:33:32.247Z,23.40
2018-07-25T07:36:00.959Z,23.20
2018-07-25T07:38:29.608Z,23.40
2018-07-25T07:40:58.258Z,23.50
2018-07-25T07:43:27.012Z,23.20
2018-07-25T07:45:55.626Z,23.60
2018-07-25T07:50:52.678Z,24.40
2018-07-25T07:53:21.341Z,24.50
2018-07-25T07:58:18.811Z,24.10
2018-07-25T08:00:47.684Z,24.00
2018-07-25T08:03:16.328Z,24.20
2018-07-25T08:05:45.766Z,24.20
2018-07-25T08:08:14.514Z,24.00
2018-07-25T08:10:43.250Z,24.20
2018-07-25T08:13:11.907Z,24.60
2018-07-25T08:15:40.511Z,25.10
2018-07-25T08:18:09.627Z,25.30
2018-07-25T08:20:38.348Z,24.60
2018-07-25T08:23:07.100Z,25.30
2018-07-25T08:25:36.974Z,25.10
2018-07-25T08:28:05.636Z,25.00
2018-07-25T08:30:34.313Z,24.80
2018-07-25T08:33:03.061Z,24.90
2018-07-25T08:35:31.742Z,25.10
2018-07-25T08:38:00.501Z,25.40
2018-07-25T08:40:29.321Z,25.60
2018-07-25T08:42:58.001Z,26.00
2018-07-25T08:45:26.656Z,25.70
2018-07-25T08:47:55.324Z,25.80
2018-07-25T08:50:23.926Z,25.60
2018-07-25T08:52:52.666Z,25.30
2018-07-25T08:55:21.337Z,24.70
2018-07-25T08:57:50.014Z,24.90
2018-07-25T09:00:20.284Z,25.10
2018-07-25T09:02:48.900Z,25.60
2018-07-25T09:05:18.600Z,25.60
2018-07-25T09:07:48.295Z,25.50
2018-07-25T09:10:17.132Z,25.70
2018-07-25T09:15:14.217Z,25.70
2018-07-25T09:17:42.856Z,26.10
2018-07-25T09:20:11.502Z,26.60
2018-07-25T09:22:40.159Z,25.70
2018-07-25T09:25:10.924Z,26.00
2018-07-25T09:27:39.698Z,26.00
2018-07-25T09:30:08.411Z,25.70
2018-07-25T09:35:05.321Z,26.40
2018-07-25T09:37:34.042Z,26.10
2018-07-25T09:40:02.730Z,25.60
2018-07-25T09:42:31.537Z,25.80
2018-07-25T09:45:00.385Z,25.60
2018-07-25T09:47:29.081Z,26.00
2018-07-25T09:49:57.905Z,26.00
2018-07-25T09:52:26.632Z,25.80
2018-07-25T09:54:55.640Z,25.70
2018-07-25T09:57:24.346Z,25.90
2018-07-25T09:59:54.067Z,26.40
2018-07-25T10:02:22.912Z,26.00
2018-07-25T10:04:51.615Z,26.00
2018-07-25T10:07:20.450Z,26.20
2018-07-25T10:09:49.138Z,26.30
2018-07-25T10:12:18.527Z,26.40
2018-07-25T10:14:47.469Z,26.40
2018-07-25T10:17:16.149Z,26.40
2018-07-25T10:19:45.853Z,26.50
2018-07-25T10:22:14.625Z,26.40
2018-07-25T10:24:43.517Z,26.20
2018-07-25T10:27:12.247Z,26.60
2018-07-25T10:29:41.030Z,26.70
2018-07-25T10:32:09.742Z,26.60
2018-07-25T10:34:38.466Z,26.50
2018-07-25T10:37:09.221Z,26.60
2018-07-25T10:39:38.055Z,26.60
2018-07-25T10:42:06.719Z,26.60
2018-07-25T10:44:35.386Z,26.70
2018-07-25T10:47:04.216Z,27.00
2018-07-25T10:49:32.907Z,27.10
2018-07-25T10:52:01.619Z,26.90
2018-07-25T10:54:30.352Z,26.70
2018-07-25T10:56:59.063Z,26.70
2018-07-25T10:59:27.773Z,27.10
2018-07-25T11:01:56.563Z,27.70
2018-07-25T11:04:25.263Z,27.70
2018-07-25T11:06:54.018Z,27.20
2018-07-25T11:09:22.927Z,27.50
2018-07-25T11:11:51.628Z,27.40
2018-07-25T11:14:20.314Z,27.50
2018-07-25T11:16:49.195Z,27.70
2018-07-25T11:19:18.001Z,27.90
2018-07-25T11:21:46.809Z,27.80
2018-07-25T11:24:15.573Z,28.10
2018-07-25T11:26:44.316Z,28.00
2018-07-25T11:29:13.642Z,28.10
2018-07-25T11:31:42.443Z,28.20
2018-07-25T11:34:11.184Z,28.40
2018-07-25T11:36:39.884Z,28.40
2018-07-25T11:39:11.122Z,28.90
2018-07-25T11:41:39.869Z,29.00
2018-07-25T11:44:08.623Z,29.20
2018-07-25T11:46:37.355Z,29.00
2018-07-25T11:49:06.358Z,28.80
2018-07-25T11:51:35.169Z,28.60
2018-07-25T11:56:33.286Z,28.50
2018-07-25T11:59:02.182Z,28.60
2018-07-25T12:01:31.875Z,28.70
2018-07-25T12:04:00.555Z,28.90
2018-07-25T12:06:29.311Z,28.80
2018-07-25T12:08:58.092Z,29.20
2018-07-25T12:11:26.941Z,29.10
2018-07-25T12:13:55.911Z,29.20
2018-07-25T12:16:24.704Z,29.50
2018-07-25T12:18:53.510Z,29.80
2018-07-25T12:21:22.356Z,29.40
2018-07-25T12:23:51.051Z,29.20
2018-07-25T12:26:20.769Z,29.50
2018-07-25T12:28:49.465Z,29.70
2018-07-25T12:31:18.309Z,30.50
2018-07-25T12:33:47.035Z,30.70
2018-07-25T12:36:15.732Z,30.70
2018-07-25T12:38:44.580Z,30.50
2018-07-25T12:41:13.306Z,30.50
2018-07-25T12:43:42.085Z,29.80
2018-07-25T12:46:10.800Z,29.80
2018-07-25T12:48:39.783Z,30.00
2018-07-25T12:51:09.332Z,30.00
2018-07-25T12:53:40.420Z,29.90
2018-07-25T12:56:11.148Z,30.00
2018-07-25T12:58:40.337Z,29.70
2018-07-25T13:01:09.106Z,29.90
2018-07-25T13:03:39.047Z,30.10
2018-07-25T13:06:07.899Z,29.50
2018-07-25T13:08:36.646Z,29.30
2018-07-25T13:11:05.481Z,29.50
2018-07-25T13:13:34.221Z,29.60
2018-07-25T13:16:02.976Z,29.70
2018-07-25T13:18:31.725Z,30.00
2018-07-25T13:21:02.496Z,29.70
2018-07-25T13:23:31.251Z,29.50
2018-07-25T13:26:00.115Z,29.80
2018-07-25T13:28:28.916Z,30.10
2018-07-25T13:30:57.677Z,30.00
2018-07-25T13:33:26.435Z,29.90
2018-07-25T13:35:56.217Z,29.90
2018-07-25T13:38:24.964Z,29.50
2018-07-25T13:40:54.793Z,29.70
2018-07-25T13:43:23.625Z,29.80
2018-07-25T13:45:52.455Z,29.70
2018-07-25T13:48:21.243Z,30.00
2018-07-25T13:50:53.839Z,30.20
2018-07-25T13:53:22.585Z,30.30
2018-07-25T13:55:51.359Z,30.20
2018-07-25T13:58:20.075Z,30.10
2018-07-25T14:00:48.837Z,29.80
2018-07-25T14:03:17.604Z,29.80
2018-07-25T14:05:46.381Z,30.00
2018-07-25T14:08:15.203Z,30.00
2018-07-25T14:10:43.987Z,30.10
2018-07-25T14:13:12.700Z,30.30
2018-07-25T14:15:41.463Z,30.10
2018-07-25T14:18:10.269Z,30.30
2018-07-25T14:20:39.198Z,30.20
2018-07-25T14:23:07.999Z,30.20
2018-07-25T14:25:36.706Z,30.40
2018-07-25T14:28:05.630Z,30.70
2018-07-25T14:30:34.365Z,30.60
2018-07-25T14:33:03.070Z,30.20
2018-07-25T14:35:32.155Z,30.00
2018-07-25T14:38:00.942Z,29.90
2018-07-25T14:40:29.747Z,30.00
2018-07-25T14:42:58.390Z,30.40
2018-07-25T14:45:27.181Z,30.50
2018-07-25T14:47:56.211Z,30.00
2018-07-25T14:50:25.601Z,30.10
2018-07-25T14:52:54.359Z,30.40
2018-07-25T14:55:23.075Z,30.40
2018-07-25T14:57:51.842Z,30.40
2018-07-25T15:00:20.654Z,30.60
2018-07-25T15:02:49.417Z,30.40
2018-07-25T15:05:18.175Z,30.40
2018-07-25T15:07:46.919Z,30.30
2018-07-25T15:10:15.793Z,30.00
2018-07-25T15:12:49.686Z,29.90
2018-07-25T15:15:18.433Z,29.90
2018-07-25T15:17:47.434Z,30.10
2018-07-25T15:20:16.202Z,30.10
2018-07-25T15:25:13.307Z,30.10
2018-07-25T15:27:42.086Z,30.20
2018-07-25T15:30:11.479Z,30.10
2018-07-25T15:32:40.543Z,30.00
2018-07-25T15:35:10.935Z,30.10
2018-07-25T15:37:40.016Z,30.00
2018-07-25T15:40:09.179Z,30.10
2018-07-25T15:42:37.894Z,30.00
2018-07-25T15:45:06.966Z,30.10
2018-07-25T15:47:35.773Z,30.20
2018-07-25T15:50:05.227Z,30.30
2018-07-25T15:52:34.021Z,30.40
2018-07-25T15:55:02.818Z,30.60
2018-07-25T15:57:34.699Z,30.50
2018-07-25T16:00:03.462Z,30.40
2018-07-25T16:02:32.159Z,30.30
2018-07-25T16:05:00.847Z,30.00
2018-07-25T16:07:29.559Z,29.70
2018-07-25T16:09:58.263Z,29.70
2018-07-25T16:12:27.013Z,29.60
2018-07-25T16:14:55.755Z,29.50
2018-07-25T16:17:24.424Z,29.40
2018-07-25T16:19:55.156Z,29.40
2018-07-25T16:22:23.838Z,29.40
2018-07-25T16:24:52.586Z,29.50
2018-07-25T16:27:21.256Z,29.50
2018-07-25T16:29:50.091Z,29.60
2018-07-25T16:32:18.934Z,29.60
2018-07-25T16:34:47.681Z,29.60
2018-07-25T16:37:16.359Z,30.00
2018-07-25T16:39:45.050Z,29.90
2018-07-25T16:42:13.854Z,29.80
2018-07-25T16:44:42.464Z,29.70
2018-07-25T16:47:11.204Z,29.70
2018-07-25T16:49:39.926Z,29.60
2018-07-25T16:52:08.721Z,29.40
2018-07-25T16:54:38.535Z,29.20
2018-07-25T16:57:07.321Z,29.10
2018-07-25T16:59:36.997Z,28.90
2018-07-25T17:02:05.712Z,29.00
2018-07-25T17:04:35.379Z,29.10
2018-07-25T17:07:04.165Z,29.00
2018-07-25T17:09:32.816Z,28.90
2018-07-25T17:12:01.537Z,28.90
2018-07-25T17:14:30.205Z,28.90
2018-07-25T17:16:59.637Z,28.80
2018-07-25T17:19:29.419Z,28.70
2018-07-25T17:22:00.138Z,28.60
2018-07-25T17:24:29.875Z,28.60
2018-07-25T17:26:58.565Z,28.50
2018-07-25T17:29:27.439Z,28.50
2018-07-25T17:31:57.294Z,28.40
2018-07-25T17:34:26.051Z,28.00
2018-07-25T17:36:55.127Z,28.00
2018-07-25T17:39:24.071Z,27.90
2018-07-25T17:41:52.761Z,28.00
2018-07-25T17:44:21.554Z,28.00
2018-07-25T17:46:50.315Z,28.00
2018-07-25T17:49:18.972Z,27.90
2018-07-25T17:51:47.756Z,27.80
2018-07-25T17:54:16.563Z,27.70
2018-07-25T17:56:45.223Z,27.60
2018-07-25T17:59:13.815Z,27.50
2018-07-25T18:01:42.548Z,27.50
2018-07-25T18:04:11.324Z,27.50
2018-07-25T18:06:39.964Z,27.50
2018-07-25T18:09:09.982Z,27.30
2018-07-25T18:11:38.679Z,27.20
2018-07-25T18:14:12.254Z,27.20
2018-07-25T18:16:42.686Z,26.90
2018-07-25T18:19:11.671Z,26.90
2018-07-25T18:21:40.813Z,26.80
2018-07-25T18:24:09.727Z,26.60
2018-07-25T18:26:38.461Z,26.50
2018-07-25T18:29:07.389Z,26.50
2018-07-25T18:31:36.094Z,26.60
2018-07-25T18:34:04.926Z,26.50
2018-07-25T18:36:34.682Z,26.40
2018-07-25T18:39:08.219Z,26.40
2018-07-25T18:41:37.202Z,26.20
2018-07-25T18:44:10.591Z,26.10
2018-07-25T18:46:39.387Z,26.10
2018-07-25T18:49:08.094Z,26.10
2018-07-25T18:51:40.050Z,26.00
2018-07-25T18:54:09.160Z,25.80
2018-07-25T18:56:38.331Z,25.60
2018-07-25T18:59:08.506Z,25.40
2018-07-25T19:01:39.251Z,25.10
2018-07-25T19:04:08.085Z,24.90
2018-07-25T19:06:36.817Z,24.80
2018-07-25T19:09:11.136Z,24.70
2018-07-25T19:14:17.970Z,24.60
2018-07-25T19:16:46.830Z,24.50
2018-07-25T19:19:17.955Z,24.40
2018-07-25T19:21:47.773Z,24.20
2018-07-25T19:24:16.477Z,24.10
2018-07-25T19:26:45.083Z,24.10
2018-07-25T19:29:14.033Z,24.20
2018-07-25T19:31:43.012Z,24.10
2018-07-25T19:34:12.740Z,24.00
2018-07-25T19:36:41.936Z,23.90
2018-07-25T19:39:11.003Z,23.80
2018-07-25T19:41:40.994Z,23.70
2018-07-25T19:44:09.895Z,23.50
2018-07-25T19:46:38.887Z,23.40
2018-07-25T19:49:08.115Z,23.40
2018-07-25T19:51:36.996Z,23.30
2018-07-25T19:54:06.968Z,23.20
2018-07-25T19:59:05.684Z,23.00
2018-07-25T20:01:34.649Z,22.90
2018-07-25T20:04:03.719Z,22.80
2018-07-25T20:06:32.773Z,22.80
2018-07-25T20:09:02.498Z,22.80
2018-07-25T20:11:31.468Z,22.80
2018-07-25T20:14:05.893Z,22.70
2018-07-25T20:16:35.710Z,22.70
2018-07-25T20:21:33.177Z,22.50
2018-07-25T20:24:03.897Z,22.30
2018-07-25T20:26:33.616Z,22.30
2018-07-25T20:29:02.347Z,22.30
2018-07-25T20:31:31.248Z,22.40
2018-07-25T20:34:00.045Z,22.30
2018-07-25T20:36:28.793Z,22.20
2018-07-25T20:38:58.428Z,22.10
2018-07-25T20:41:27.166Z,22.10
2018-07-25T20:43:55.777Z,22.10
2018-07-25T20:46:24.655Z,22.10
2018-07-25T20:48:53.581Z,22.00
2018-07-25T20:51:22.589Z,22.00
2018-07-25T20:53:51.252Z,21.90
2018-07-25T20:56:19.988Z,21.90
2018-07-25T20:58:48.912Z,21.90
2018-07-25T21:03:46.132Z,21.80
2018-07-25T21:06:14.990Z,21.80
2018-07-25T21:08:43.672Z,21.70
2018-07-25T21:11:12.352Z,21.70
2018-07-25T21:13:41.009Z,21.70
2018-07-25T21:16:10.745Z,21.70
2018-07-25T21:18:39.370Z,21.60
2018-07-25T21:21:08.090Z,21.60
2018-07-25T21:23:36.670Z,21.60
2018-07-25T21:26:06.236Z,21.70
2018-07-25T21:28:34.865Z,21.60
2018-07-25T21:31:03.574Z,21.50
2018-07-25T21:33:32.230Z,21.40
2018-07-25T21:36:00.956Z,21.40
2018-07-25T21:38:29.610Z,21.40
2018-07-25T21:40:58.254Z,21.30
2018-07-25T21:43:27.102Z,21.30
2018-07-25T21:45:55.834Z,21.20
2018-07-25T21:48:24.507Z,21.20
2018-07-25T21:50:53.297Z,21.30
2018-07-25T21:53:21.901Z,21.40
2018-07-25T21:55:50.658Z,21.40
2018-07-25T21:58:19.502Z,21.40
2018-07-25T22:00:54.207Z,21.40
2018-07-25T22:03:23.138Z,21.30
2018-07-25T22:05:54.830Z,21.30
2018-07-25T22:08:23.605Z,21.20
2018-07-25T22:10:52.270Z,21.20
2018-07-25T22:13:20.896Z,21.20
2018-07-25T22:15:49.511Z,21.20
2018-07-25T22:18:18.159Z,21.20
2018-07-25T22:20:47.853Z,21.10
2018-07-25T22:23:16.526Z,21.20
2018-07-25T22:25:45.199Z,21.10
2018-07-25T22:28:13.865Z,21.00
2018-07-25T22:30:42.564Z,20.90
2018-07-25T22:33:11.307Z,20.80
2018-07-25T22:35:40.043Z,20.80
2018-07-25T22:38:18.240Z,20.80
2018-07-25T22:40:46.941Z,20.80
2018-07-25T22:43:15.645Z,20.80
2018-07-25T22:45:44.307Z,20.80
2018-07-25T22:48:12.915Z,20.80
2018-07-25T22:50:41.611Z,20.70
2018-07-25T22:53:10.261Z,20.50
2018-07-25T22:55:38.987Z,20.70
2018-07-25T22:58:07.720Z,20.70
2018-07-25T23:00:37.740Z,20.80
2018-07-25T23:03:06.426Z,20.80
2018-07-25T23:05:35.072Z,20.70
2018-07-25T23:08:03.908Z,20.70
2018-07-25T23:10:32.549Z,20.60
2018-07-25T23:13:01.216Z,20.60
2018-07-25T23:15:29.948Z,20.50
2018-07-25T23:17:58.593Z,20.50
2018-07-25T23:20:29.292Z,20.40
2018-07-25T23:23:00.109Z,20.30
2018-07-25T23:25:29.269Z,20.20
2018-07-25T23:27:59.111Z,20.20
2018-07-25T23:30:28.987Z,20.20
2018-07-25T23:32:57.632Z,20.10
2018-07-25T23:35:26.307Z,20.10
2018-07-25T23:37:55.018Z,20.10
2018-07-25T23:40:23.703Z,20.00
2018-07-25T23:42:52.450Z,20.10
2018-07-25T23:47:49.516Z,20.10
2018-07-25T23:52:46.449Z,20.00
2018-07-25T23:55:15.063Z,19.90
2018-07-25T23:57:43.711Z,20.00
